Myrtle Beach, South Carolina
Current Conditions -  °F | °C
As of 8:45 PM on Wednesday 17 Dec 2014 (Local Time) from KMYR Reporting Station
Clear Clear  
Wind Chill: 48°   Ceiling: Unl
Heat Index: 48°   Visibility: 10mi
Dew Point: 43°   Wind: 0mph
Humidity: 82%   Direction: NA
Pressure: 30.12"   Gusts: NA
Location:  33.69°N, 78.88°W
Report Text: KMYR 180145Z 00000KT 10SM CLR 09/06 A3012
Loading
Personal Weather Stations






























Interactive Weather Map New forecast layout! Learn more

10-Day Weather Forecast

Advertisements
Track Severe Weather on mobile